Time;durP1;ratioP1;P1;durP2;ratioP2;P2;SDS_P1;SDS_P2;PMS_P1;PMS_P2;Temp;Humidity;BMP_temperature;BMP_pressure;BME280_temperature;BME280_humidity;BME280_pressure;Samples;Min_cycle;Max_cycle;Signal;HPM_P1;HPM_P2
2022/04/13 00:01:07;;;;;;;;;;;12.10;99.90;;;;;;4991571;28;19930;-80
2022/04/13 00:03:34;;;;;;;;;;;12.10;99.90;;;;;;4985435;28;19933;-80
2022/04/13 00:06:01;;;;;;;;;;;12.00;99.90;;;;;;4956724;28;19933;-81
2022/04/13 00:08:28;;;;;;;;;;;12.00;99.90;;;;;;4976601;28;19948;-81
2022/04/13 00:10:55;;;;;;;;;;;12.00;99.90;;;;;;4976356;28;19926;-81
2022/04/13 00:13:22;;;;;;;;;;;12.00;99.90;;;;;;4973305;28;19934;-81
2022/04/13 00:15:49;;;;;;;;;;;12.00;99.90;;;;;;4982433;28;20200;-80
2022/04/13 00:18:18;;;;;;;;;;;11.90;99.90;;;;;;4997647;28;20012;-81
2022/04/13 00:20:45;;;;;;;;;;;11.90;99.90;;;;;;4979053;28;19930;-81
2022/04/13 00:23:12;;;;;;;;;;;11.90;99.90;;;;;;4983250;28;19980;-81
2022/04/13 00:25:41;;;;;;;;;;;11.90;99.90;;;;;;4984373;28;19927;-81
2022/04/13 00:28:10;;;;;;;;;;;11.80;99.90;;;;;;4988947;28;19989;-81
2022/04/13 00:30:38;;;;;;;;;;;11.80;99.90;;;;;;4983004;28;19941;-81
2022/04/13 00:33:05;;;;;;;;;;;11.80;99.90;;;;;;4976642;28;19940;-81
2022/04/13 00:35:33;;;;;;;;;;;11.80;99.90;;;;;;4976437;28;19933;-81
2022/04/13 00:38:01;;;;;;;;;;;11.70;99.90;;;;;;4962617;28;20388;-80
2022/04/13 00:40:28;;;;;;;;;;;11.70;99.90;;;;;;4973427;28;20637;-81
2022/04/13 00:42:55;;;;;;;;;;;11.70;99.90;;;;;;4978036;28;19933;-81
2022/04/13 00:45:22;;;;;;;;;;;11.70;99.90;;;;;;4974733;28;20319;-81
2022/04/13 00:47:49;;;;;;;;;;;11.70;99.90;;;;;;4981266;28;19932;-80
2022/04/13 00:50:16;;;;;;;;;;;11.60;99.90;;;;;;4982119;28;19934;-81
2022/04/13 00:52:47;;;;;;;;;;;11.60;99.90;;;;;;4956449;28;19936;-81
2022/04/13 00:55:14;;;;;;;;;;;11.60;99.90;;;;;;4975631;28;20427;-80
2022/04/13 00:57:42;;;;;;;;;;;11.60;99.90;;;;;;4988986;28;19926;-81
2022/04/13 01:00:10;;;;;;;;;;;11.60;99.90;;;;;;4962316;28;19930;-81
2022/04/13 01:02:37;;;;;;;;;;;11.50;99.90;;;;;;4982663;28;19993;-80
2022/04/13 01:05:06;;;;;;;;;;;11.50;99.90;;;;;;4987621;28;19980;-81
2022/04/13 01:07:33;;;;;;;;;;;11.50;99.90;;;;;;4986434;28;19926;-80
2022/04/13 01:10:02;;;;;;;;;;;11.50;99.90;;;;;;4990865;28;19911;-80
2022/04/13 01:18:18;;;;;;;;;;;11.40;99.90;;;;;;4958917;28;19927;-80
2022/04/13 01:20:52;;;;;;;;;;;11.40;99.90;;;;;;4959763;28;19933;-80
2022/04/13 01:23:22;;;;;;;;;;;11.40;99.90;;;;;;4950852;28;19926;-80
2022/04/13 01:25:49;;;;;;;;;;;11.40;99.90;;;;;;4954585;28;20345;-80
2022/04/13 01:28:16;;;;;;;;;;;11.30;99.90;;;;;;4964703;28;20317;-80
2022/04/13 01:30:43;;;;;;;;;;;11.30;99.90;;;;;;4965055;28;19930;-80
2022/04/13 01:33:10;;;;;;;;;;;11.30;99.90;;;;;;4953724;28;20017;-80
2022/04/13 01:35:37;;;;;;;;;;;11.30;99.90;;;;;;4960333;28;19934;-80
2022/04/13 01:38:05;;;;;;;;;;;11.30;99.90;;;;;;4952922;28;20336;-80
2022/04/13 01:40:33;;;;;;;;;;;11.30;99.90;;;;;;4953534;28;19931;-80
2022/04/13 01:43:00;;;;;;;;;;;11.20;99.90;;;;;;4957605;28;19933;-80
2022/04/13 01:45:27;;;;;;;;;;;11.20;99.90;;;;;;4948259;28;20393;-80
2022/04/13 01:47:54;;;;;;;;;;;11.20;99.90;;;;;;4953322;28;19934;-80
2022/04/13 01:50:21;;;;;;;;;;;11.20;99.90;;;;;;4954974;28;19930;-80
2022/04/13 01:52:49;;;;;;;;;;;11.10;99.90;;;;;;4946873;28;20460;-80
2022/04/13 01:55:17;;;;;;;;;;;11.10;99.90;;;;;;4962789;28;20439;-80
2022/04/13 01:57:45;;;;;;;;;;;11.10;99.90;;;;;;4955437;28;19959;-80
2022/04/13 02:00:13;;;;;;;;;;;11.10;99.90;;;;;;4963402;28;19989;-80
2022/04/13 02:02:40;;;;;;;;;;;11.10;99.90;;;;;;4970462;28;19938;-80
2022/04/13 02:05:07;;;;;;;;;;;11.10;99.90;;;;;;4969836;28;19926;-80
2022/04/13 02:07:34;;;;;;;;;;;11.10;99.90;;;;;;4970274;28;20740;-81
2022/04/13 02:10:01;;;;;;;;;;;11.00;99.90;;;;;;4966393;28;19930;-80
2022/04/13 02:12:28;;;;;;;;;;;11.00;99.90;;;;;;4977750;28;19934;-80
2022/04/13 02:14:56;;;;;;;;;;;11.00;99.90;;;;;;4967203;28;19926;-80
2022/04/13 02:17:23;;;;;;;;;;;11.00;99.90;;;;;;4975019;28;19954;-79
2022/04/13 02:19:50;;;;;;;;;;;11.00;99.90;;;;;;4969994;28;19964;-80
2022/04/13 02:22:17;;;;;;;;;;;11.00;99.90;;;;;;4971424;28;19926;-80
2022/04/13 02:24:44;;;;;;;;;;;11.00;99.90;;;;;;4969381;28;19926;-80
2022/04/13 02:27:12;;;;;;;;;;;11.00;99.90;;;;;;4964595;28;19934;-80
2022/04/13 02:29:39;;;;;;;;;;;10.90;99.90;;;;;;4973230;28;19927;-80
2022/04/13 02:32:09;;;;;;;;;;;10.90;99.90;;;;;;4960889;28;20025;-80
2022/04/13 02:34:36;;;;;;;;;;;10.90;99.90;;;;;;4955231;28;19926;-80
2022/04/13 02:37:04;;;;;;;;;;;10.90;99.90;;;;;;4954433;28;21143;-79
2022/04/13 02:39:31;;;;;;;;;;;10.90;99.90;;;;;;4952691;28;19976;-80
2022/04/13 02:41:58;;;;;;;;;;;10.90;99.90;;;;;;4959995;28;19927;-80
2022/04/13 02:44:25;;;;;;;;;;;10.80;99.90;;;;;;4966527;28;20412;-80
2022/04/13 02:46:51;;;;;;;;;;;10.90;99.90;;;;;;4959238;28;19930;-79
2022/04/13 02:49:20;;;;;;;;;;;10.80;99.90;;;;;;4958711;28;19933;-80
2022/04/13 02:51:47;;;;;;;;;;;10.80;99.90;;;;;;4954142;28;20001;-80
2022/04/13 02:54:14;;;;;;;;;;;10.80;99.90;;;;;;4957012;28;19927;-80
2022/04/13 02:56:41;;;;;;;;;;;10.80;99.90;;;;;;4955705;28;19938;-80
2022/04/13 02:59:10;;;;;;;;;;;10.80;99.90;;;;;;4971315;28;19926;-80
2022/04/13 03:01:40;;;;;;;;;;;10.70;99.90;;;;;;4966032;28;19926;-80
2022/04/13 03:04:07;;;;;;;;;;;10.70;99.90;;;;;;4952388;28;19974;-80
2022/04/13 03:06:35;;;;;;;;;;;10.70;99.90;;;;;;4973043;28;19934;-80
2022/04/13 03:09:03;;;;;;;;;;;10.70;99.90;;;;;;4956455;28;19927;-80
2022/04/13 03:11:30;;;;;;;;;;;10.70;99.90;;;;;;4960169;28;20432;-79
2022/04/13 03:13:57;;;;;;;;;;;10.70;99.90;;;;;;4958911;28;19933;-80
2022/04/13 03:16:24;;;;;;;;;;;10.70;99.90;;;;;;4970885;23;22677;-75
2022/04/13 03:18:51;;;;;;;;;;;10.70;99.90;;;;;;5010837;28;19933;-76
2022/04/13 03:21:18;;;;;;;;;;;10.60;99.90;;;;;;5015042;28;20202;-75
2022/04/13 03:23:47;;;;;;;;;;;10.60;99.90;;;;;;5009643;28;19929;-75
2022/04/13 03:26:14;;;;;;;;;;;10.60;99.90;;;;;;5011798;28;20201;-76
2022/04/13 03:28:41;;;;;;;;;;;10.60;99.90;;;;;;5012534;28;19964;-76
2022/04/13 03:31:08;;;;;;;;;;;10.50;99.90;;;;;;5009204;28;19932;-76
2022/04/13 03:33:35;;;;;;;;;;;10.60;99.90;;;;;;5007692;28;19936;-74
2022/04/13 03:36:02;;;;;;;;;;;10.50;99.90;;;;;;5001984;28;20311;-76
2022/04/13 03:38:29;;;;;;;;;;;10.50;99.90;;;;;;5008241;28;19980;-75
2022/04/13 03:40:57;;;;;;;;;;;10.50;99.90;;;;;;5008662;28;20019;-76
2022/04/13 03:43:26;;;;;;;;;;;10.50;99.90;;;;;;5007975;28;19992;-76
2022/04/13 03:45:53;;;;;;;;;;;10.50;99.90;;;;;;5000459;28;23051;-75
2022/04/13 03:48:20;;;;;;;;;;;10.40;99.90;;;;;;5003612;28;19965;-76
2022/04/13 03:50:49;;;;;;;;;;;10.40;99.90;;;;;;5010502;28;19980;-76
2022/04/13 03:53:17;;;;;;;;;;;10.40;99.90;;;;;;5006571;28;20057;-74
2022/04/13 03:55:44;;;;;;;;;;;10.40;99.90;;;;;;5006854;28;19929;-76
2022/04/13 03:58:12;;;;;;;;;;;10.30;99.90;;;;;;5013470;28;19925;-76
2022/04/13 04:00:39;;;;;;;;;;;10.40;99.90;;;;;;5018183;28;19925;-75
2022/04/13 04:03:06;;;;;;;;;;;10.30;99.90;;;;;;5008387;28;19995;-75
2022/04/13 04:05:33;;;;;;;;;;;10.30;99.90;;;;;;5007662;28;19933;-75
2022/04/13 04:08:00;;;;;;;;;;;10.30;99.90;;;;;;5003961;28;19925;-75
2022/04/13 04:10:26;;;;;;;;;;;10.30;99.90;;;;;;5002259;28;20154;-76
2022/04/13 04:12:55;;;;;;;;;;;10.30;99.90;;;;;;5005550;28;19939;-75
2022/04/13 04:15:23;;;;;;;;;;;10.30;99.90;;;;;;5010499;28;20035;-76
2022/04/13 04:17:50;;;;;;;;;;;10.20;99.90;;;;;;5008261;28;19932;-76
2022/04/13 04:20:17;;;;;;;;;;;10.20;99.90;;;;;;5000914;28;19925;-75
2022/04/13 04:22:44;;;;;;;;;;;10.20;99.90;;;;;;5005930;28;19937;-76
2022/04/13 04:25:11;;;;;;;;;;;10.20;99.90;;;;;;5005752;28;19925;-75
2022/04/13 04:27:38;;;;;;;;;;;10.20;99.90;;;;;;5007260;28;19932;-75
2022/04/13 04:30:05;;;;;;;;;;;10.10;99.90;;;;;;5001321;28;19952;-76
2022/04/13 04:32:33;;;;;;;;;;;10.10;99.90;;;;;;4997589;28;19926;-76
2022/04/13 04:35:00;;;;;;;;;;;10.10;99.90;;;;;;5011659;28;20466;-75
2022/04/13 04:37:27;;;;;;;;;;;10.10;99.90;;;;;;5011487;28;20587;-76
2022/04/13 04:39:54;;;;;;;;;;;10.00;99.90;;;;;;5001847;28;19945;-75
2022/04/13 04:42:21;;;;;;;;;;;10.10;99.90;;;;;;5005913;28;19925;-76
2022/04/13 04:44:48;;;;;;;;;;;10.00;99.90;;;;;;5012967;28;20387;-76
2022/04/13 04:47:14;;;;;;;;;;;10.00;99.90;;;;;;5004366;28;19926;-75
2022/04/13 04:49:43;;;;;;;;;;;10.00;99.90;;;;;;5004811;28;19925;-76
2022/04/13 04:52:10;;;;;;;;;;;10.00;99.90;;;;;;5010266;28;19951;-76
2022/04/13 04:54:37;;;;;;;;;;;10.00;99.90;;;;;;5006410;28;19933;-77
2022/04/13 04:57:04;;;;;;;;;;;9.90;99.90;;;;;;5006238;28;20542;-77
2022/04/13 04:59:31;;;;;;;;;;;9.90;99.90;;;;;;5014627;28;19926;-75
2022/04/13 05:01:58;;;;;;;;;;;9.90;99.90;;;;;;4998845;28;19952;-75
2022/04/13 05:04:25;;;;;;;;;;;9.90;99.90;;;;;;5000850;28;19926;-75
2022/04/13 05:06:53;;;;;;;;;;;9.90;99.90;;;;;;5014297;28;19933;-75
2022/04/13 05:09:22;;;;;;;;;;;9.90;99.90;;;;;;5002400;28;19927;-75
2022/04/13 05:11:49;;;;;;;;;;;9.80;99.90;;;;;;5001792;28;20024;-75
2022/04/13 05:14:18;;;;;;;;;;;9.80;99.90;;;;;;5005036;28;19933;-75
2022/04/13 05:16:45;;;;;;;;;;;9.80;99.90;;;;;;5003127;28;20376;-74
2022/04/13 05:19:15;;;;;;;;;;;9.80;99.90;;;;;;5000935;28;19992;-75
2022/04/13 05:21:42;;;;;;;;;;;9.80;99.90;;;;;;5001401;28;19934;-75
2022/04/13 05:24:10;;;;;;;;;;;9.80;99.90;;;;;;5001655;28;20384;-75
2022/04/13 05:26:37;;;;;;;;;;;9.80;99.90;;;;;;5002562;28;20473;-75
2022/04/13 05:29:04;;;;;;;;;;;9.70;99.90;;;;;;5002502;28;19956;-75
2022/04/13 05:31:31;;;;;;;;;;;9.70;99.90;;;;;;5001426;28;19925;-75
2022/04/13 05:33:58;;;;;;;;;;;9.70;99.90;;;;;;5005088;28;19926;-75
2022/04/13 05:36:25;;;;;;;;;;;9.70;99.90;;;;;;4999727;28;20696;-75
2022/04/13 05:38:52;;;;;;;;;;;9.70;99.90;;;;;;5000640;28;19984;-75
2022/04/13 05:41:20;;;;;;;;;;;9.70;99.90;;;;;;5002590;28;19926;-75
2022/04/13 05:43:47;;;;;;;;;;;9.60;99.90;;;;;;4996483;28;19991;-75
2022/04/13 05:46:14;;;;;;;;;;;9.70;99.90;;;;;;4996225;28;19936;-75
2022/04/13 05:48:41;;;;;;;;;;;9.70;99.90;;;;;;4999072;28;19929;-75
2022/04/13 05:51:09;;;;;;;;;;;9.60;99.90;;;;;;5001521;28;20343;-75
2022/04/13 05:53:36;;;;;;;;;;;9.60;99.90;;;;;;5003355;28;20343;-75
2022/04/13 05:56:03;;;;;;;;;;;9.60;99.90;;;;;;4995340;28;19933;-75
2022/04/13 05:58:31;;;;;;;;;;;9.60;99.90;;;;;;4994698;28;19933;-75
2022/04/13 06:00:58;;;;;;;;;;;9.60;99.90;;;;;;5004929;28;19926;-75
2022/04/13 06:03:25;;;;;;;;;;;9.60;99.90;;;;;;4998728;28;19933;-75
2022/04/13 06:05:52;;;;;;;;;;;9.60;99.90;;;;;;5002771;28;19933;-75
2022/04/13 06:08:19;;;;;;;;;;;9.60;99.90;;;;;;5001797;28;19932;-75
2022/04/13 06:10:46;;;;;;;;;;;9.60;99.90;;;;;;5000237;28;20651;-77
2022/04/13 06:13:13;;;;;;;;;;;9.60;99.90;;;;;;4994515;28;19925;-75
2022/04/13 06:15:43;;;;;;;;;;;9.50;99.90;;;;;;5009110;28;19925;-74
2022/04/13 06:18:10;;;;;;;;;;;9.50;99.90;;;;;;4991768;28;19933;-74
2022/04/13 06:20:37;;;;;;;;;;;9.50;99.90;;;;;;4997034;28;20006;-74
2022/04/13 06:23:04;;;;;;;;;;;9.50;99.90;;;;;;5001380;28;19929;-76
2022/04/13 06:25:32;;;;;;;;;;;9.50;99.90;;;;;;5000100;28;19925;-74
2022/04/13 06:27:59;;;;;;;;;;;9.50;99.90;;;;;;4992268;28;19977;-75
2022/04/13 06:30:26;;;;;;;;;;;9.50;99.90;;;;;;5009136;28;19925;-74
2022/04/13 06:32:54;;;;;;;;;;;9.50;99.90;;;;;;5002291;28;20033;-75
2022/04/13 06:35:23;;;;;;;;;;;9.50;99.90;;;;;;5004279;28;19940;-75
2022/04/13 06:37:50;;;;;;;;;;;9.50;99.90;;;;;;5004215;28;19925;-75
2022/04/13 06:40:17;;;;;;;;;;;9.40;99.90;;;;;;4999330;28;19937;-77
2022/04/13 06:42:44;;;;;;;;;;;9.40;99.90;;;;;;5003702;28;19925;-77
2022/04/13 06:45:12;;;;;;;;;;;9.50;99.90;;;;;;4997853;28;20645;-76
2022/04/13 06:47:40;;;;;;;;;;;9.60;99.90;;;;;;5007877;28;19933;-76
2022/04/13 06:50:09;;;;;;;;;;;9.60;99.90;;;;;;4996999;28;19936;-77
2022/04/13 06:52:40;;;;;;;;;;;9.50;99.90;;;;;;5005206;28;20023;-76
2022/04/13 06:55:09;;;;;;;;;;;9.50;99.90;;;;;;5008456;28;19984;-76
2022/04/13 06:57:37;;;;;;;;;;;9.60;99.90;;;;;;4997566;28;20390;-75
2022/04/13 07:00:05;;;;;;;;;;;9.50;99.90;;;;;;4998894;28;19933;-75
2022/04/13 07:02:32;;;;;;;;;;;9.60;99.90;;;;;;5010686;28;20025;-76
2022/04/13 07:04:59;;;;;;;;;;;9.60;99.90;;;;;;5009340;28;19932;-76
2022/04/13 07:07:27;;;;;;;;;;;9.60;99.90;;;;;;5006508;28;19940;-75
2022/04/13 07:09:54;;;;;;;;;;;9.60;99.90;;;;;;5007083;28;20020;-76
2022/04/13 07:12:21;;;;;;;;;;;9.60;99.90;;;;;;5010790;28;19933;-76
2022/04/13 07:14:48;;;;;;;;;;;9.60;99.90;;;;;;5006701;28;19930;-76
2022/04/13 07:17:15;;;;;;;;;;;9.60;99.90;;;;;;5018756;28;20018;-77
2022/04/13 07:19:42;;;;;;;;;;;9.70;99.90;;;;;;5008541;28;20013;-76
2022/04/13 07:22:09;;;;;;;;;;;9.70;99.90;;;;;;5013691;28;19930;-76
2022/04/13 07:24:37;;;;;;;;;;;9.70;99.90;;;;;;5009649;28;19992;-76
2022/04/13 07:27:05;;;;;;;;;;;9.70;99.90;;;;;;5010967;28;19952;-77
2022/04/13 07:29:32;;;;;;;;;;;9.70;99.90;;;;;;5009685;28;20257;-76
2022/04/13 07:31:59;;;;;;;;;;;9.70;99.90;;;;;;5001872;28;19925;-76
2022/04/13 07:34:26;;;;;;;;;;;9.70;99.90;;;;;;5005985;28;19934;-76
2022/04/13 07:36:52;;;;;;;;;;;9.70;99.90;;;;;;4997826;28;19926;-75
2022/04/13 07:39:20;;;;;;;;;;;9.80;99.90;;;;;;5008527;28;20016;-76
2022/04/13 07:41:48;;;;;;;;;;;9.70;99.90;;;;;;5004232;28;19940;-76
2022/04/13 07:44:15;;;;;;;;;;;9.70;99.90;;;;;;5005402;28;19926;-76
2022/04/13 07:46:42;;;;;;;;;;;9.80;99.90;;;;;;5009275;28;20508;-76
2022/04/13 07:49:09;;;;;;;;;;;9.80;99.90;;;;;;5002401;28;19929;-76
2022/04/13 07:51:39;;;;;;;;;;;9.80;99.90;;;;;;5007731;28;19930;-75
2022/04/13 07:54:06;;;;;;;;;;;9.80;99.90;;;;;;5001287;28;19926;-76
2022/04/13 07:56:34;;;;;;;;;;;9.80;99.90;;;;;;5010790;28;20347;-76
2022/04/13 07:59:02;;;;;;;;;;;9.80;99.90;;;;;;5003089;28;20008;-76
2022/04/13 08:01:29;;;;;;;;;;;9.80;99.90;;;;;;5002815;28;19926;-76
2022/04/13 08:03:56;;;;;;;;;;;9.80;99.90;;;;;;5007357;28;19972;-77
2022/04/13 08:06:23;;;;;;;;;;;9.80;99.90;;;;;;4998434;28;19926;-75
2022/04/13 08:08:50;;;;;;;;;;;9.80;99.90;;;;;;4996974;28;19972;-76
2022/04/13 08:11:17;;;;;;;;;;;9.90;99.90;;;;;;5009963;28;19925;-76
2022/04/13 08:13:44;;;;;;;;;;;9.90;99.90;;;;;;5006824;28;19969;-76
2022/04/13 08:16:13;;;;;;;;;;;9.90;99.90;;;;;;5003763;28;20230;-76
2022/04/13 08:18:40;;;;;;;;;;;9.90;99.90;;;;;;5007582;28;19929;-76
2022/04/13 08:21:07;;;;;;;;;;;9.90;99.90;;;;;;5011169;28;20020;-75
2022/04/13 08:23:34;;;;;;;;;;;10.00;99.90;;;;;;5007443;28;19980;-76
2022/04/13 08:26:01;;;;;;;;;;;10.00;99.90;;;;;;5002105;28;20407;-76
2022/04/13 08:28:28;;;;;;;;;;;10.00;99.90;;;;;;5009353;28;19932;-76
2022/04/13 08:30:55;;;;;;;;;;;10.00;99.90;;;;;;5007452;28;19980;-76
2022/04/13 08:33:23;;;;;;;;;;;10.10;99.90;;;;;;5011158;28;20370;-76
2022/04/13 08:35:51;;;;;;;;;;;10.10;99.90;;;;;;5010420;28;20288;-76
2022/04/13 08:38:18;;;;;;;;;;;10.10;99.90;;;;;;5015810;28;19971;-76
2022/04/13 08:40:49;;;;;;;;;;;10.10;99.90;;;;;;5004681;28;19933;-76
2022/04/13 08:43:19;;;;;;;;;;;10.10;99.90;;;;;;5007196;28;19929;-75
2022/04/13 08:45:55;;;;;;;;;;;10.20;99.90;;;;;;4997523;28;19969;-76
2022/04/13 08:48:23;;;;;;;;;;;10.20;99.90;;;;;;4993809;28;19961;-75
2022/04/13 08:50:54;;;;;;;;;;;10.20;99.90;;;;;;5002914;28;19929;-75
2022/04/13 08:53:24;;;;;;;;;;;10.30;99.90;;;;;;4999066;28;19932;-76
2022/04/13 08:55:53;;;;;;;;;;;10.30;99.90;;;;;;5005778;28;20299;-76
2022/04/13 08:58:23;;;;;;;;;;;10.30;99.90;;;;;;5005825;28;19937;-77
2022/04/13 09:00:52;;;;;;;;;;;10.40;99.90;;;;;;5010377;28;19929;-76
2022/04/13 09:03:32;;;;;;;;;;;10.40;99.90;;;;;;5007896;28;19926;-76
2022/04/13 09:06:01;;;;;;;;;;;10.40;99.90;;;;;;5004915;28;19940;-75
2022/04/13 09:08:34;;;;;;;;;;;10.40;99.90;;;;;;5002541;28;19936;-75
2022/04/13 09:11:01;;;;;;;;;;;10.50;99.90;;;;;;5002545;28;19983;-76
2022/04/13 09:13:32;;;;;;;;;;;10.50;99.90;;;;;;5005874;28;19972;-76
2022/04/13 09:16:03;;;;;;;;;;;10.50;99.90;;;;;;5005220;28;20254;-76
2022/04/13 09:18:30;;;;;;;;;;;10.60;99.90;;;;;;5010362;28;19983;-76
2022/04/13 09:20:57;;;;;;;;;;;10.60;99.90;;;;;;5015640;28;19929;-76
2022/04/13 09:23:26;;;;;;;;;;;10.60;99.90;;;;;;5006556;28;19925;-76
2022/04/13 09:25:54;;;;;;;;;;;10.70;99.90;;;;;;5007037;28;20064;-76
2022/04/13 09:28:21;;;;;;;;;;;10.70;99.90;;;;;;5009186;28;19931;-76
2022/04/13 09:30:48;;;;;;;;;;;10.70;99.90;;;;;;5009112;28;19925;-75
2022/04/13 09:33:15;;;;;;;;;;;10.80;99.90;;;;;;5005231;28;20040;-76
2022/04/13 09:35:42;;;;;;;;;;;10.80;99.90;;;;;;5006712;28;19926;-76
2022/04/13 09:38:09;;;;;;;;;;;10.90;99.90;;;;;;5005887;28;19976;-76
2022/04/13 09:40:38;;;;;;;;;;;10.90;99.90;;;;;;4986471;23;19927;-80
2022/04/13 09:43:06;;;;;;;;;;;10.90;99.90;;;;;;4967772;28;19981;-78
2022/04/13 09:45:33;;;;;;;;;;;11.00;99.90;;;;;;4968479;28;20010;-78
2022/04/13 09:48:00;;;;;;;;;;;11.00;99.90;;;;;;4962530;28;19927;-79
2022/04/13 09:50:27;;;;;;;;;;;11.00;99.90;;;;;;4949561;28;19950;-80
2022/04/13 09:52:57;;;;;;;;;;;11.00;99.90;;;;;;4928191;29;19934;-79
2022/04/13 09:55:24;;;;;;;;;;;11.10;99.90;;;;;;4954432;28;19927;-77
2022/04/13 09:58:03;;;;;;;;;;;11.10;99.90;;;;;;4933188;28;19937;-80
2022/04/13 10:00:30;;;;;;;;;;;11.20;99.90;;;;;;4946989;28;19967;-79
2022/04/13 10:03:06;;;;;;;;;;;11.20;99.90;;;;;;4951828;28;19990;-79
2022/04/13 10:05:33;;;;;;;;;;;11.20;99.90;;;;;;4942475;28;19937;-79
2022/04/13 10:08:04;;;;;;;;;;;11.30;99.90;;;;;;4954848;28;20440;-77
2022/04/13 10:10:31;;;;;;;;;;;11.30;99.90;;;;;;4957063;28;19989;-79
2022/04/13 10:12:59;;;;;;;;;;;11.30;99.90;;;;;;4958886;28;19927;-80
2022/04/13 10:15:26;;;;;;;;;;;11.40;99.90;;;;;;4953275;28;20299;-78
2022/04/13 10:17:57;;;;;;;;;;;11.40;99.90;;;;;;4951117;28;19927;-80
2022/04/13 10:20:28;;;;;;;;;;;11.40;99.90;;;;;;4953584;28;19973;-79
2022/04/13 10:22:59;;;;;;;;;;;11.50;99.90;;;;;;4956897;28;19936;-79
2022/04/13 10:25:27;;;;;;;;;;;11.50;99.90;;;;;;4949751;28;19937;-78
2022/04/13 10:27:55;;;;;;;;;;;11.50;99.90;;;;;;4952098;28;19970;-78
2022/04/13 10:30:30;;;;;;;;;;;11.60;99.90;;;;;;4957901;28;19952;-79
2022/04/13 10:33:01;;;;;;;;;;;11.60;99.90;;;;;;4951729;28;19926;-80
2022/04/13 10:35:28;;;;;;;;;;;11.60;99.90;;;;;;4952370;28;19935;-79
2022/04/13 10:37:56;;;;;;;;;;;11.60;99.90;;;;;;4953439;28;20397;-79
2022/04/13 10:40:24;;;;;;;;;;;11.70;99.90;;;;;;4937924;29;19935;-78
2022/04/13 10:42:51;;;;;;;;;;;11.70;99.90;;;;;;4936758;28;20440;-77
2022/04/13 10:45:19;;;;;;;;;;;11.70;99.90;;;;;;4954871;28;20309;-80
2022/04/13 10:47:51;;;;;;;;;;;11.80;99.90;;;;;;4949237;28;19989;-78
2022/04/13 10:50:21;;;;;;;;;;;11.80;99.90;;;;;;4915990;28;19930;-80
2022/04/13 10:52:53;;;;;;;;;;;12.30;99.90;;;;;;4927394;29;20484;-79
2022/04/13 10:55:21;;;;;;;;;;;13.10;99.90;;;;;;4933950;29;19926;-79
2022/04/13 10:57:51;;;;;;;;;;;13.40;99.90;;;;;;4949675;28;19931;-78
2022/04/13 11:00:19;;;;;;;;;;;13.70;99.90;;;;;;4927137;28;19940;-79
2022/04/13 11:02:52;;;;;;;;;;;13.80;99.50;;;;;;4948949;28;19977;-79
2022/04/13 11:05:19;;;;;;;;;;;14.00;99.50;;;;;;4941617;28;20166;-80
2022/04/13 11:07:46;;;;;;;;;;;13.90;99.90;;;;;;4944344;28;19935;-80
2022/04/13 11:10:16;;;;;;;;;;;13.60;99.90;;;;;;4929947;28;19946;-83
2022/04/13 11:12:44;;;;;;;;;;;13.40;99.90;;;;;;4944166;28;19926;-80
2022/04/13 11:15:11;;;;;;;;;;;13.40;99.90;;;;;;4949771;28;19977;-81
2022/04/13 11:17:41;;;;;;;;;;;13.30;99.90;;;;;;4944379;28;20788;-81
2022/04/13 11:20:19;;;;;;;;;;;13.30;99.90;;;;;;4947283;28;19927;-80
2022/04/13 11:22:47;;;;;;;;;;;13.30;99.90;;;;;;4947406;28;19927;-81
2022/04/13 11:25:29;;;;;;;;;;;13.20;99.90;;;;;;4945924;28;19961;-81
2022/04/13 11:27:57;;;;;;;;;;;13.20;99.90;;;;;;4932333;28;20045;-80
2022/04/13 11:30:25;;;;;;;;;;;13.20;99.90;;;;;;4950303;28;19930;-80
2022/04/13 11:32:52;;;;;;;;;;;13.30;99.90;;;;;;4946472;28;19927;-80
2022/04/13 11:35:27;;;;;;;;;;;13.20;99.90;;;;;;4947245;28;19927;-81
2022/04/13 11:38:03;;;;;;;;;;;13.20;99.90;;;;;;4943094;28;20017;-80
2022/04/13 11:40:30;;;;;;;;;;;13.30;99.90;;;;;;4928600;28;20177;-80
2022/04/13 11:42:59;;;;;;;;;;;13.30;99.90;;;;;;4925787;28;19977;-79
2022/04/13 11:45:26;;;;;;;;;;;13.30;99.90;;;;;;4933573;29;19931;-81
2022/04/13 11:47:54;;;;;;;;;;;13.30;99.90;;;;;;4934070;29;19931;-81
2022/04/13 11:50:21;;;;;;;;;;;13.40;99.90;;;;;;4949064;28;20379;-81
2022/04/13 11:52:51;;;;;;;;;;;13.30;99.90;;;;;;4929770;28;20312;-79
2022/04/13 11:55:19;;;;;;;;;;;13.40;99.90;;;;;;4926300;29;20112;-80
2022/04/13 11:57:53;;;;;;;;;;;13.40;99.90;;;;;;4945856;28;19934;-79
2022/04/13 12:00:41;;;;;;;;;;;13.40;99.90;;;;;;4942261;28;19935;-81
2022/04/13 12:03:09;;;;;;;;;;;13.40;99.90;;;;;;4924895;29;20337;-81
2022/04/13 12:05:36;;;;;;;;;;;13.50;99.90;;;;;;4953736;28;20025;-81
2022/04/13 12:08:08;;;;;;;;;;;13.50;99.90;;;;;;4951482;28;20361;-80
2022/04/13 12:10:38;;;;;;;;;;;13.60;99.90;;;;;;4936585;29;20040;-80
2022/04/13 12:13:05;;;;;;;;;;;13.50;99.90;;;;;;4937789;29;19927;-79
2022/04/13 12:15:51;;;;;;;;;;;13.60;99.90;;;;;;4931336;29;20365;-81
2022/04/13 12:18:18;;;;;;;;;;;13.60;99.90;;;;;;4956023;28;20357;-81
2022/04/13 12:20:47;;;;;;;;;;;13.60;99.90;;;;;;4953956;28;19926;-80
2022/04/13 12:23:26;;;;;;;;;;;13.70;99.90;;;;;;4940391;28;19989;-80
2022/04/13 12:25:54;;;;;;;;;;;13.70;99.90;;;;;;4929593;28;19965;-79
2022/04/13 12:28:22;;;;;;;;;;;13.70;99.90;;;;;;4934492;29;20373;-81
2022/04/13 12:30:56;;;;;;;;;;;13.80;99.90;;;;;;4948635;28;19934;-81
2022/04/13 12:33:24;;;;;;;;;;;13.80;99.90;;;;;;4953376;28;19982;-81
2022/04/13 12:35:51;;;;;;;;;;;13.80;99.90;;;;;;4954560;28;20365;-80
2022/04/13 12:38:27;;;;;;;;;;;13.90;99.90;;;;;;4953283;28;19931;-80
2022/04/13 12:41:04;;;;;;;;;;;13.90;99.90;;;;;;4933905;29;19927;-80
2022/04/13 12:43:33;;;;;;;;;;;14.00;99.90;;;;;;4954861;28;19931;-80
2022/04/13 12:46:07;;;;;;;;;;;14.00;99.90;;;;;;4947082;28;19942;-80
2022/04/13 12:48:36;;;;;;;;;;;14.10;99.90;;;;;;4928834;28;19927;-82
2022/04/13 12:51:04;;;;;;;;;;;14.10;99.90;;;;;;4952517;28;20021;-80
2022/04/13 12:53:42;;;;;;;;;;;14.20;99.90;;;;;;4931632;28;19930;-78
2022/04/13 12:56:10;;;;;;;;;;;14.20;99.90;;;;;;4951231;28;19934;-81
2022/04/13 12:58:37;;;;;;;;;;;14.30;99.90;;;;;;4950075;28;20381;-79
2022/04/13 13:01:04;;;;;;;;;;;14.30;99.90;;;;;;4950276;28;19946;-80
2022/04/13 13:03:35;;;;;;;;;;;14.40;99.90;;;;;;4952554;28;20009;-79
2022/04/13 13:06:06;;;;;;;;;;;14.40;99.90;;;;;;4948247;28;19933;-80
2022/04/13 13:08:33;;;;;;;;;;;14.40;99.90;;;;;;4937395;29;19938;-80
2022/04/13 13:11:02;;;;;;;;;;;14.50;99.90;;;;;;4947630;28;19934;-82
2022/04/13 13:13:37;;;;;;;;;;;14.50;99.90;;;;;;4952566;28;20439;-79
2022/04/13 13:16:05;;;;;;;;;;;14.60;99.90;;;;;;4948919;28;19927;-80
2022/04/13 13:18:32;;;;;;;;;;;14.60;99.90;;;;;;4952116;28;20401;-79
2022/04/13 13:21:00;;;;;;;;;;;14.70;99.90;;;;;;4931509;28;20294;-80
2022/04/13 13:23:27;;;;;;;;;;;14.70;99.90;;;;;;4943462;28;19927;-82
2022/04/13 13:25:54;;;;;;;;;;;14.80;99.90;;;;;;4952429;28;19949;-82
2022/04/13 13:28:26;;;;;;;;;;;14.80;99.90;;;;;;4944463;28;19934;-80
2022/04/13 13:30:55;;;;;;;;;;;14.80;99.90;;;;;;4953361;28;20392;-80
2022/04/13 13:33:24;;;;;;;;;;;14.90;99.90;;;;;;4949076;28;20357;-80
2022/04/13 13:35:51;;;;;;;;;;;14.90;99.90;;;;;;4938067;28;19937;-82
2022/04/13 13:38:21;;;;;;;;;;;15.20;95.50;;;;;;4943897;28;19926;-82
2022/04/13 13:40:48;;;;;;;;;;;15.80;93.00;;;;;;4941712;28;19927;-80
2022/04/13 13:43:30;;;;;;;;;;;16.10;89.80;;;;;;4938870;28;20467;-80
2022/04/13 13:46:00;;;;;;;;;;;16.30;88.50;;;;;;4943259;28;20451;-82
2022/04/13 13:48:29;;;;;;;;;;;16.40;88.30;;;;;;4952457;28;19950;-82
2022/04/13 13:50:58;;;;;;;;;;;16.30;91.70;;;;;;4951355;28;20018;-82
2022/04/13 13:53:27;;;;;;;;;;;16.00;94.10;;;;;;4926549;28;19933;-80
2022/04/13 13:55:54;;;;;;;;;;;15.80;95.40;;;;;;4943571;28;20170;-82
2022/04/13 13:58:21;;;;;;;;;;;15.70;95.90;;;;;;4942220;28;19926;-82
2022/04/13 14:00:48;;;;;;;;;;;15.70;96.40;;;;;;4932221;28;20029;-79
2022/04/13 14:03:17;;;;;;;;;;;15.70;97.20;;;;;;4947830;28;20005;-82
2022/04/13 14:05:44;;;;;;;;;;;15.70;97.60;;;;;;4924675;28;19926;-82
2022/04/13 14:08:12;;;;;;;;;;;15.70;98.00;;;;;;4948271;28;19950;-82
2022/04/13 14:10:39;;;;;;;;;;;15.70;98.40;;;;;;4945791;28;19941;-79
2022/04/13 14:13:07;;;;;;;;;;;15.70;98.50;;;;;;4928313;29;20023;-82
2022/04/13 14:15:34;;;;;;;;;;;15.70;98.50;;;;;;4948505;28;20013;-81
2022/04/13 14:18:01;;;;;;;;;;;15.80;98.90;;;;;;4945201;28;19935;-81
2022/04/13 14:20:29;;;;;;;;;;;15.80;98.90;;;;;;4952660;28;20622;-82
2022/04/13 14:22:56;;;;;;;;;;;15.90;99.00;;;;;;4933615;28;19930;-82
2022/04/13 14:25:24;;;;;;;;;;;15.90;99.00;;;;;;4935582;28;19958;-82
2022/04/13 14:27:52;;;;;;;;;;;15.90;99.00;;;;;;4944087;28;19931;-80
2022/04/13 14:30:20;;;;;;;;;;;16.00;99.30;;;;;;4931473;29;19941;-81
2022/04/13 14:32:48;;;;;;;;;;;16.00;99.10;;;;;;4949502;28;20030;-81